createdAt,value
2019-05-13T06:05:05.222Z,19.50
2019-05-13T06:18:27.957Z,18.60
2019-05-13T06:31:51.907Z,19.80
2019-05-13T06:45:13.572Z,20.00
2019-05-13T06:58:36.410Z,20.00
2019-05-13T07:11:59.321Z,19.80
2019-05-13T07:25:22.361Z,19.80
2019-05-13T07:38:45.053Z,19.60
2019-05-13T07:52:07.680Z,19.60
2019-05-13T08:05:31.489Z,19.60
2019-05-13T08:31:54.940Z,19.50
2019-05-13T08:45:02.283Z,19.40
2019-05-13T09:11:14.164Z,19.70
2019-05-13T09:24:26.018Z,19.70
2019-05-13T09:37:28.601Z,19.80
2019-05-13T09:50:36.327Z,19.80
2019-05-13T10:03:53.155Z,19.90
2019-05-13T10:17:07.559Z,20.00
2019-05-13T10:43:32.860Z,19.60
2019-05-13T10:56:39.492Z,19.50
2019-05-13T11:22:52.143Z,19.60
2019-05-13T11:35:58.531Z,19.60
2019-05-13T11:49:05.742Z,19.70
2019-05-13T12:02:13.577Z,19.60
2019-05-13T12:15:27.165Z,19.70
2019-05-13T12:28:27.617Z,19.70
2019-05-13T12:41:53.616Z,19.70
2019-05-13T12:55:14.283Z,19.70
2019-05-13T13:08:42.855Z,19.70
2019-05-13T13:22:03.239Z,19.70
2019-05-13T13:35:22.397Z,19.80
2019-05-13T13:48:45.204Z,19.80
2019-05-13T14:02:07.966Z,19.80
2019-05-13T14:15:33.708Z,19.80
2019-05-13T14:41:55.308Z,19.80
2019-05-13T15:22:08.767Z,20.00
2019-05-13T15:35:32.052Z,20.00
2019-05-13T15:48:54.241Z,20.00
2019-05-13T16:02:16.917Z,19.90
2019-05-13T16:15:41.553Z,20.00
2019-05-13T16:29:02.659Z,20.10
2019-05-13T16:42:25.481Z,20.10
2019-05-13T16:55:48.350Z,20.00
2019-05-13T17:09:11.681Z,19.90
2019-05-13T17:35:35.537Z,19.80
2019-05-13T17:48:43.196Z,19.60
2019-05-13T18:01:51.641Z,19.50
2019-05-13T18:28:02.642Z,19.30
2019-05-13T18:54:15.321Z,19.00
2019-05-13T19:07:23.998Z,18.90
2019-05-13T19:20:48.085Z,18.80
2019-05-13T19:48:06.501Z,19.40
2019-05-13T20:27:32.871Z,19.80
2019-05-13T20:40:48.631Z,19.80
2019-05-13T20:54:11.563Z,19.80
2019-05-13T21:07:34.261Z,19.90
2019-05-13T21:20:57.087Z,19.90
2019-05-13T21:34:21.124Z,19.90
2019-05-13T22:00:44.253Z,19.90
2019-05-13T22:13:51.584Z,19.90
2019-05-13T22:26:58.696Z,20.00
2019-05-13T22:40:05.884Z,20.00
2019-05-13T22:53:13.077Z,20.00
2019-05-13T23:19:22.899Z,20.00
2019-05-13T23:32:31.928Z,20.00
2019-05-13T23:59:36.421Z,20.00
